createdAt,value
2022-09-19T00:01:08.675Z,5.43
2022-09-19T00:03:36.805Z,5.13
2022-09-19T00:06:04.394Z,6.57
2022-09-19T00:08:31.364Z,6.27
2022-09-19T00:11:02.394Z,7.63
2022-09-19T00:13:30.489Z,6.00
2022-09-19T00:15:57.974Z,5.10
2022-09-19T00:18:24.984Z,7.00
2022-09-19T00:20:51.773Z,6.70
2022-09-19T00:23:37.106Z,7.83
2022-09-19T00:26:07.460Z,4.80
2022-09-19T00:28:35.321Z,6.57
2022-09-19T00:31:02.985Z,6.90
2022-09-19T00:33:32.475Z,7.20
2022-09-19T00:36:00.793Z,8.53
2022-09-19T00:38:29.408Z,6.37
2022-09-19T00:40:57.788Z,7.83
2022-09-19T00:43:43.226Z,10.90
2022-09-19T00:46:10.040Z,8.93
2022-09-19T00:48:42.807Z,5.80
2022-09-19T00:51:32.510Z,5.47
2022-09-19T00:54:03.338Z,9.43
2022-09-19T00:56:31.145Z,9.07
2022-09-19T00:59:00.137Z,7.53
2022-09-19T01:01:27.272Z,7.57
2022-09-19T01:03:54.318Z,9.93
2022-09-19T01:06:52.674Z,8.00
2022-09-19T01:09:49.912Z,7.77
2022-09-19T01:12:22.901Z,8.43
2022-09-19T01:15:21.989Z,9.90
2022-09-19T01:18:01.076Z,8.20
2022-09-19T01:20:55.851Z,7.47
2022-09-19T01:24:00.151Z,6.80
2022-09-19T01:26:50.213Z,5.53
2022-09-19T01:29:22.060Z,7.30
2022-09-19T01:31:53.809Z,10.40
2022-09-19T01:34:30.381Z,13.67
2022-09-19T01:37:10.538Z,10.40
2022-09-19T01:39:40.487Z,8.97
2022-09-19T01:42:07.380Z,11.10
2022-09-19T01:44:34.244Z,7.07
2022-09-19T01:47:22.824Z,8.40
2022-09-19T01:49:49.563Z,11.33
2022-09-19T01:52:57.615Z,11.50
2022-09-19T01:55:40.754Z,10.80
2022-09-19T01:58:37.604Z,9.97
2022-09-19T02:01:31.698Z,8.33
2022-09-19T02:04:13.452Z,9.57
2022-09-19T02:06:54.971Z,8.67
2022-09-19T02:09:37.290Z,12.17
2022-09-19T02:12:07.393Z,11.97
2022-09-19T02:14:38.963Z,8.77
2022-09-19T02:17:16.936Z,11.03
2022-09-19T02:19:57.988Z,12.13
2022-09-19T02:22:36.158Z,13.70
2022-09-19T02:25:07.158Z,10.40
2022-09-19T02:27:39.495Z,11.03
2022-09-19T02:30:09.866Z,11.63
2022-09-19T02:32:38.129Z,13.63
2022-09-19T02:35:06.612Z,13.03
2022-09-19T02:37:46.152Z,15.70
2022-09-19T02:40:38.018Z,10.37
2022-09-19T02:43:24.994Z,13.67
2022-09-19T02:45:56.349Z,10.70
2022-09-19T02:48:30.899Z,14.90
2022-09-19T02:51:20.824Z,10.43
2022-09-19T02:53:54.353Z,13.90
2022-09-19T02:56:28.430Z,12.13
2022-09-19T02:59:00.191Z,14.83
2022-09-19T03:01:29.772Z,8.47
2022-09-19T03:04:16.135Z,10.10
2022-09-19T03:07:08.486Z,12.07
2022-09-19T03:09:35.278Z,12.27
2022-09-19T03:12:10.303Z,10.30
2022-09-19T03:14:37.129Z,9.77
2022-09-19T03:17:05.576Z,16.00
2022-09-19T03:19:34.131Z,20.93
2022-09-19T03:22:01.437Z,20.10
2022-09-19T03:24:28.327Z,17.00
2022-09-19T03:26:55.134Z,13.63
2022-09-19T03:29:22.083Z,13.57
2022-09-19T03:31:51.840Z,14.97
2022-09-19T03:34:20.178Z,11.73
2022-09-19T03:36:47.192Z,12.57
2022-09-19T03:39:14.068Z,13.03
2022-09-19T03:41:40.851Z,13.83
2022-09-19T03:44:08.391Z,16.60
2022-09-19T03:46:36.748Z,15.03
2022-09-19T03:49:05.054Z,15.43
2022-09-19T03:51:33.102Z,16.30
2022-09-19T03:54:00.044Z,13.47
2022-09-19T03:56:27.269Z,15.97
2022-09-19T03:58:54.097Z,12.27
2022-09-19T04:01:21.795Z,16.67
2022-09-19T04:03:50.107Z,15.07
2022-09-19T04:06:17.245Z,12.83
2022-09-19T04:08:44.083Z,15.77
2022-09-19T04:11:12.445Z,12.80
2022-09-19T04:13:39.461Z,13.73
2022-09-19T04:16:07.725Z,14.50
2022-09-19T04:18:35.368Z,19.27
2022-09-19T04:21:02.385Z,16.77
2022-09-19T04:23:29.238Z,19.40
2022-09-19T04:25:56.711Z,16.27
2022-09-19T04:28:24.166Z,18.53
2022-09-19T04:30:51.507Z,22.90
2022-09-19T04:33:19.283Z,18.00
2022-09-19T04:35:46.941Z,17.13
2022-09-19T04:38:18.362Z,16.73
2022-09-19T04:40:48.389Z,24.97
2022-09-19T04:43:19.949Z,21.80
2022-09-19T04:45:48.523Z,20.87
2022-09-19T04:48:16.797Z,15.40
2022-09-19T04:50:45.870Z,19.13
2022-09-19T04:53:14.701Z,19.23
2022-09-19T04:55:41.745Z,21.30
2022-09-19T04:58:08.547Z,18.83
2022-09-19T05:00:39.552Z,21.43
2022-09-19T05:03:15.382Z,22.47
2022-09-19T05:05:45.826Z,18.47
2022-09-19T05:08:16.203Z,17.27
2022-09-19T05:10:46.933Z,17.67
2022-09-19T05:13:15.276Z,17.90
2022-09-19T05:15:44.160Z,19.73
2022-09-19T05:18:13.669Z,18.33
2022-09-19T05:20:40.591Z,21.60
2022-09-19T05:23:07.632Z,16.17
2022-09-19T05:25:38.312Z,19.80
2022-09-19T05:28:08.710Z,17.87
2022-09-19T05:30:40.372Z,15.80
2022-09-19T05:33:08.107Z,16.87
2022-09-19T05:35:34.866Z,17.60
2022-09-19T05:38:01.670Z,21.53
2022-09-19T05:40:28.616Z,18.23
2022-09-19T05:43:01.422Z,22.03
2022-09-19T05:45:28.816Z,21.67
2022-09-19T05:48:06.447Z,15.93
2022-09-19T05:50:34.166Z,21.00
2022-09-19T05:53:19.712Z,20.47
2022-09-19T05:55:47.120Z,23.00
2022-09-19T05:58:16.320Z,18.90
2022-09-19T06:00:43.065Z,17.37
2022-09-19T06:03:12.633Z,18.37
2022-09-19T06:05:41.747Z,15.23
2022-09-19T06:08:08.549Z,18.13
2022-09-19T06:10:41.869Z,17.17
2022-09-19T06:13:13.256Z,19.37
2022-09-19T06:15:40.517Z,19.33
2022-09-19T06:18:07.846Z,24.27
2022-09-19T06:20:34.948Z,17.53
2022-09-19T06:23:03.482Z,15.50
2022-09-19T06:25:31.602Z,16.93
2022-09-19T06:28:01.771Z,22.63
2022-09-19T06:30:29.522Z,15.93
2022-09-19T06:32:56.293Z,13.97
2022-09-19T06:35:26.471Z,16.43
2022-09-19T06:38:02.449Z,17.37
2022-09-19T06:40:30.256Z,16.27
2022-09-19T06:43:00.330Z,17.43
2022-09-19T06:45:27.197Z,12.47
2022-09-19T06:47:58.494Z,20.10
2022-09-19T06:50:26.186Z,11.33
2022-09-19T06:52:53.429Z,10.17
2022-09-19T06:55:20.469Z,17.37
2022-09-19T06:57:59.369Z,10.77
2022-09-19T07:00:28.048Z,15.20
2022-09-19T07:03:01.194Z,15.87
2022-09-19T07:05:31.061Z,12.67
2022-09-19T07:07:57.834Z,10.70
2022-09-19T07:10:24.994Z,11.97
2022-09-19T07:13:00.191Z,10.90
2022-09-19T07:15:26.992Z,14.10
2022-09-19T07:18:00.010Z,12.90
2022-09-19T07:20:28.694Z,11.73
2022-09-19T07:23:10.070Z,13.97
2022-09-19T07:25:39.147Z,8.83
2022-09-19T07:28:07.542Z,12.27
2022-09-19T07:30:36.344Z,15.07
2022-09-19T07:33:06.027Z,11.20
2022-09-19T07:35:36.396Z,13.10
2022-09-19T07:38:05.219Z,11.70
2022-09-19T07:40:34.469Z,10.83
2022-09-19T07:43:06.175Z,14.03
2022-09-19T07:45:35.500Z,15.97
2022-09-19T07:48:03.632Z,13.17
2022-09-19T07:50:31.568Z,14.50
2022-09-19T07:53:05.743Z,11.40
2022-09-19T07:55:33.429Z,17.73
2022-09-19T07:58:01.270Z,12.03
2022-09-19T08:00:29.358Z,7.67
2022-09-19T08:03:11.469Z,10.00
2022-09-19T08:05:40.919Z,12.70
2022-09-19T08:08:10.983Z,10.57
2022-09-19T08:10:44.930Z,9.57
2022-09-19T08:13:16.159Z,11.13
2022-09-19T08:15:45.131Z,13.80
2022-09-19T08:18:21.031Z,9.73
2022-09-19T08:20:49.744Z,7.67
2022-09-19T08:23:19.048Z,9.63
2022-09-19T08:25:52.734Z,9.87
2022-09-19T08:28:23.398Z,10.37
2022-09-19T08:30:50.586Z,13.60
2022-09-19T08:33:19.766Z,11.30
2022-09-19T08:35:46.676Z,11.90
2022-09-19T08:38:14.807Z,10.33
2022-09-19T08:40:41.769Z,8.03
2022-09-19T08:43:23.379Z,9.73
2022-09-19T08:46:37.104Z,8.97
2022-09-19T08:49:22.053Z,9.30
2022-09-19T08:52:00.432Z,7.87
2022-09-19T08:54:33.346Z,6.50
2022-09-19T08:57:02.074Z,6.93
2022-09-19T08:59:36.244Z,12.90
2022-09-19T09:02:24.004Z,8.47
2022-09-19T09:04:51.603Z,8.93
2022-09-19T09:07:53.445Z,7.40
2022-09-19T09:10:31.393Z,8.67
2022-09-19T09:13:06.500Z,10.27
2022-09-19T09:15:52.560Z,7.07
2022-09-19T09:18:22.452Z,8.67
2022-09-19T09:21:19.663Z,10.20
2022-09-19T09:23:52.474Z,8.83
2022-09-19T09:26:24.198Z,7.43
2022-09-19T09:28:56.889Z,10.77
2022-09-19T09:31:30.134Z,6.73
2022-09-19T09:34:18.539Z,8.37
2022-09-19T09:36:56.456Z,8.37
2022-09-19T09:39:33.618Z,11.17
2022-09-19T09:42:05.409Z,11.50
2022-09-19T09:45:00.684Z,7.00
2022-09-19T09:47:45.237Z,7.93
2022-09-19T09:50:39.827Z,7.13
2022-09-19T09:53:18.678Z,8.33
2022-09-19T09:56:04.134Z,5.50
2022-09-19T09:59:07.417Z,8.93
2022-09-19T10:02:01.929Z,12.30
2022-09-19T10:04:54.096Z,6.20
2022-09-19T10:07:38.179Z,9.60
2022-09-19T10:10:19.369Z,8.57
2022-09-19T10:12:58.514Z,9.43
2022-09-19T10:15:30.266Z,9.53
2022-09-19T10:18:08.352Z,8.27
2022-09-19T10:20:50.564Z,10.10
2022-09-19T10:23:26.353Z,4.80
2022-09-19T10:26:16.102Z,10.63
2022-09-19T10:28:54.635Z,7.03
2022-09-19T10:31:41.137Z,7.27
2022-09-19T10:34:33.097Z,8.57
2022-09-19T10:37:09.268Z,9.27
2022-09-19T10:39:45.600Z,7.43
2022-09-19T10:42:42.450Z,7.87
2022-09-19T10:45:18.016Z,7.77
2022-09-19T10:47:45.282Z,4.67
2022-09-19T10:50:19.841Z,4.10
2022-09-19T10:52:52.403Z,7.23
2022-09-19T10:55:23.607Z,6.33
2022-09-19T10:57:59.741Z,6.13
2022-09-19T11:00:32.866Z,8.13
2022-09-19T11:03:16.579Z,7.60
2022-09-19T11:05:43.830Z,10.43
2022-09-19T11:08:26.623Z,8.93
2022-09-19T11:10:53.423Z,9.90
2022-09-19T11:13:23.427Z,10.87
2022-09-19T11:16:05.058Z,9.87
2022-09-19T11:18:44.259Z,12.37
2022-09-19T11:21:28.486Z,8.80
2022-09-19T11:24:31.005Z,6.37
2022-09-19T11:27:16.273Z,8.70
2022-09-19T11:30:14.460Z,10.17
2022-09-19T11:36:24.848Z,6.47
2022-09-19T11:41:47.159Z,10.10
2022-09-19T11:44:30.580Z,8.27
2022-09-19T11:47:39.439Z,11.70
2022-09-19T11:50:45.249Z,4.07
2022-09-19T11:53:33.714Z,4.70
2022-09-19T11:56:19.871Z,6.53
2022-09-19T11:59:14.764Z,9.20
2022-09-19T12:01:56.030Z,4.93
2022-09-19T12:04:43.944Z,2.87
2022-09-19T12:07:45.162Z,4.97
2022-09-19T12:10:36.762Z,3.73
2022-09-19T12:13:09.468Z,6.57
2022-09-19T12:15:38.746Z,5.20
2022-09-19T12:18:28.633Z,7.23
2022-09-19T12:21:01.643Z,2.93
2022-09-19T12:23:55.246Z,7.17
2022-09-19T12:26:27.563Z,7.07
2022-09-19T12:29:05.908Z,5.27
2022-09-19T12:31:38.035Z,7.67
2022-09-19T12:34:23.144Z,6.90
2022-09-19T12:36:59.250Z,5.63
2022-09-19T12:40:06.259Z,6.07
2022-09-19T12:42:51.166Z,5.20
2022-09-19T12:45:24.803Z,4.37
2022-09-19T12:48:05.477Z,5.17
2022-09-19T12:50:50.297Z,4.87
2022-09-19T12:53:35.797Z,4.10
2022-09-19T12:56:08.150Z,6.33
2022-09-19T12:58:45.030Z,4.30
2022-09-19T13:01:28.077Z,4.07
2022-09-19T13:04:26.514Z,4.90
2022-09-19T13:07:10.799Z,4.73
2022-09-19T13:10:08.032Z,5.63
2022-09-19T13:13:23.904Z,3.20
2022-09-19T13:16:19.193Z,2.43
2022-09-19T13:19:08.011Z,2.17
2022-09-19T13:21:59.506Z,3.73
2022-09-19T13:24:42.265Z,3.20
2022-09-19T13:27:10.939Z,3.47
2022-09-19T13:29:41.488Z,4.83
2022-09-19T13:32:54.662Z,3.37
2022-09-19T13:35:23.792Z,8.33
2022-09-19T13:38:00.898Z,3.73
2022-09-19T13:40:47.180Z,6.70
2022-09-19T13:43:30.321Z,3.83
2022-09-19T13:46:07.471Z,5.23
2022-09-19T13:48:54.006Z,6.53
2022-09-19T13:51:32.789Z,4.87
2022-09-19T13:54:21.203Z,5.23
2022-09-19T13:57:04.547Z,4.70
2022-09-19T13:59:35.314Z,2.87
2022-09-19T14:02:05.332Z,2.83
2022-09-19T14:04:54.275Z,4.63
2022-09-19T14:10:49.070Z,2.87
2022-09-19T14:13:30.537Z,3.70
2022-09-19T14:16:09.543Z,4.10
2022-09-19T14:18:42.082Z,7.83
2022-09-19T14:21:09.748Z,4.20
2022-09-19T14:23:42.536Z,4.73
2022-09-19T14:26:09.390Z,5.83
2022-09-19T14:29:13.672Z,4.53
2022-09-19T14:32:08.925Z,5.13
2022-09-19T14:34:52.450Z,4.23
2022-09-19T14:37:45.229Z,6.13
2022-09-19T14:40:28.178Z,8.13
2022-09-19T14:43:19.656Z,4.73
2022-09-19T14:46:08.147Z,6.20
2022-09-19T14:48:50.553Z,9.50
2022-09-19T14:51:45.143Z,7.53
2022-09-19T14:54:25.523Z,7.43
2022-09-19T14:57:11.087Z,6.67
2022-09-19T14:59:37.962Z,4.77
2022-09-19T15:02:19.569Z,6.00
2022-09-19T15:04:52.724Z,8.00
2022-09-19T15:07:27.554Z,4.73
2022-09-19T15:09:54.444Z,7.50
2022-09-19T15:12:25.977Z,6.30
2022-09-19T15:14:57.556Z,3.33
2022-09-19T15:17:33.723Z,10.83
2022-09-19T15:20:13.419Z,5.07
2022-09-19T15:22:59.166Z,6.10
2022-09-19T15:25:36.579Z,2.63
2022-09-19T15:28:22.600Z,2.80
2022-09-19T15:30:56.222Z,4.07
2022-09-19T15:33:24.048Z,3.83
2022-09-19T15:35:53.539Z,1.17
2022-09-19T15:38:32.367Z,5.83
2022-09-19T15:41:01.708Z,3.57
2022-09-19T15:43:30.212Z,3.70
2022-09-19T15:46:02.258Z,3.20
2022-09-19T15:48:34.042Z,4.03
2022-09-19T15:51:04.687Z,4.47
2022-09-19T15:53:43.074Z,5.27
2022-09-19T15:56:16.668Z,4.47
2022-09-19T15:58:47.298Z,6.00
2022-09-19T16:01:27.602Z,7.40
2022-09-19T16:04:02.669Z,4.57
2022-09-19T16:06:54.764Z,4.77
2022-09-19T16:09:32.519Z,4.20
2022-09-19T16:12:00.521Z,4.50
2022-09-19T16:14:31.843Z,3.27
2022-09-19T16:17:00.348Z,3.20
2022-09-19T16:19:32.940Z,2.70
2022-09-19T16:22:01.619Z,4.93
2022-09-19T16:24:31.042Z,3.00
2022-09-19T16:27:00.798Z,6.73
2022-09-19T16:29:30.855Z,3.90
2022-09-19T16:31:57.927Z,6.03
2022-09-19T16:34:30.955Z,3.37
2022-09-19T16:36:58.732Z,3.83
2022-09-19T16:39:42.767Z,5.70
2022-09-19T16:42:12.536Z,3.90
2022-09-19T16:44:54.219Z,4.20
2022-09-19T16:47:23.700Z,3.03
2022-09-19T16:49:52.456Z,5.90
2022-09-19T16:52:30.618Z,8.40
2022-09-19T16:55:03.216Z,2.63
2022-09-19T16:57:31.078Z,4.93
2022-09-19T16:59:58.155Z,5.40
2022-09-19T17:02:30.718Z,4.87
2022-09-19T17:05:00.816Z,6.30
2022-09-19T17:07:27.672Z,6.27
2022-09-19T17:09:54.539Z,7.37
2022-09-19T17:12:23.623Z,4.63
2022-09-19T17:14:51.790Z,2.00
2022-09-19T17:17:19.187Z,3.90
2022-09-19T17:19:46.939Z,7.87
2022-09-19T17:22:18.898Z,5.73
2022-09-19T17:24:47.154Z,4.40
2022-09-19T17:27:15.081Z,4.53
2022-09-19T17:29:42.393Z,3.10
2022-09-19T17:32:12.376Z,4.13
2022-09-19T17:34:39.191Z,3.60
2022-09-19T17:37:06.018Z,6.03
2022-09-19T17:39:33.140Z,4.83
2022-09-19T17:42:00.853Z,3.13
2022-09-19T17:44:28.094Z,5.70
2022-09-19T17:46:54.952Z,6.70
2022-09-19T17:49:21.834Z,6.37
2022-09-19T17:51:49.150Z,5.43
2022-09-19T17:54:16.679Z,6.53
2022-09-19T17:56:52.598Z,6.70
2022-09-19T17:59:21.584Z,4.70
2022-09-19T18:02:07.118Z,6.33
2022-09-19T18:04:34.322Z,9.33
2022-09-19T18:07:01.269Z,8.50
2022-09-19T18:09:28.208Z,7.90
2022-09-19T18:11:55.502Z,7.87
2022-09-19T18:14:23.004Z,6.53
2022-09-19T18:16:50.867Z,9.53
2022-09-19T18:19:17.661Z,8.27
2022-09-19T18:21:44.866Z,8.00
2022-09-19T18:24:12.066Z,9.23
2022-09-19T18:26:39.400Z,11.03
2022-09-19T18:29:08.266Z,7.73
2022-09-19T18:31:36.020Z,8.10
2022-09-19T18:34:03.915Z,6.87
2022-09-19T18:36:32.364Z,7.90
2022-09-19T18:38:59.219Z,10.77
2022-09-19T18:41:27.265Z,9.13
2022-09-19T18:43:54.536Z,10.77
2022-09-19T18:46:24.006Z,10.43
2022-09-19T18:48:53.155Z,12.83
2022-09-19T18:51:22.303Z,5.87
2022-09-19T18:53:51.363Z,8.27
2022-09-19T18:56:19.817Z,9.93
2022-09-19T18:58:54.010Z,9.33
2022-09-19T19:01:22.558Z,13.27
2022-09-19T19:03:55.890Z,7.83
2022-09-19T19:06:24.051Z,9.13
2022-09-19T19:08:52.465Z,10.73
2022-09-19T19:11:22.457Z,9.63
2022-09-19T19:13:49.961Z,7.10
2022-09-19T19:16:20.408Z,11.93
2022-09-19T19:18:53.021Z,12.53
2022-09-19T19:21:24.949Z,8.53
2022-09-19T19:23:57.641Z,11.53
2022-09-19T19:26:29.282Z,10.37
2022-09-19T19:28:56.098Z,11.90
2022-09-19T19:31:23.160Z,8.30
2022-09-19T19:33:50.095Z,9.93
2022-09-19T19:36:22.243Z,11.80
2022-09-19T19:38:50.516Z,8.73
2022-09-19T19:41:25.475Z,7.43
2022-09-19T19:43:54.505Z,12.40
2022-09-19T19:46:23.457Z,11.33
2022-09-19T19:48:52.984Z,14.87
2022-09-19T19:51:22.786Z,10.67
2022-09-19T19:53:50.604Z,6.87
2022-09-19T19:56:20.598Z,14.10
2022-09-19T19:58:48.800Z,6.90
2022-09-19T20:01:20.852Z,9.67
2022-09-19T20:04:05.040Z,10.60
2022-09-19T20:06:37.823Z,12.37
2022-09-19T20:09:06.406Z,14.43
2022-09-19T20:11:34.132Z,10.80
2022-09-19T20:14:04.179Z,9.30
2022-09-19T20:16:35.886Z,15.73
2022-09-19T20:19:04.450Z,14.87
2022-09-19T20:21:34.647Z,11.70
2022-09-19T20:24:03.245Z,15.50
2022-09-19T20:26:32.221Z,13.40
2022-09-19T20:29:00.935Z,11.33
2022-09-19T20:31:30.933Z,14.97
2022-09-19T20:33:57.973Z,9.83
2022-09-19T20:36:26.018Z,10.43
2022-09-19T20:38:56.799Z,9.80
2022-09-19T20:41:25.585Z,8.13
2022-09-19T20:43:53.813Z,15.03
2022-09-19T20:46:21.584Z,11.43
2022-09-19T20:48:48.912Z,9.17
2022-09-19T20:51:23.892Z,12.17
2022-09-19T20:53:54.768Z,12.10
2022-09-19T20:56:24.208Z,7.40
2022-09-19T20:59:01.255Z,12.57
2022-09-19T21:01:37.189Z,12.10
2022-09-19T21:04:05.744Z,7.03
2022-09-19T21:06:33.213Z,7.27
2022-09-19T21:09:02.182Z,13.77
2022-09-19T21:11:29.230Z,10.00
2022-09-19T21:13:58.218Z,13.50
2022-09-19T21:16:30.296Z,11.60
2022-09-19T21:18:58.904Z,10.80
2022-09-19T21:21:30.523Z,6.20
2022-09-19T21:23:57.768Z,9.07
2022-09-19T21:26:28.767Z,8.83
2022-09-19T21:28:57.868Z,12.17
2022-09-19T21:31:26.805Z,12.97
2022-09-19T21:33:55.376Z,10.57
2022-09-19T21:36:23.052Z,10.20
2022-09-19T21:38:54.041Z,10.63
2022-09-19T21:41:21.471Z,8.77
2022-09-19T21:43:48.543Z,7.43
2022-09-19T21:46:17.581Z,10.43
2022-09-19T21:48:46.213Z,7.23
2022-09-19T21:51:15.427Z,6.47
2022-09-19T21:53:45.080Z,9.30
2022-09-19T21:56:12.482Z,13.20
2022-09-19T21:58:39.781Z,8.23
2022-09-19T22:01:10.233Z,10.80
2022-09-19T22:03:37.151Z,8.63
2022-09-19T22:06:05.217Z,10.30
2022-09-19T22:08:32.594Z,7.73
2022-09-19T22:11:00.314Z,6.40
2022-09-19T22:13:28.356Z,8.93
2022-09-19T22:16:00.191Z,7.53
2022-09-19T22:18:28.037Z,8.17
2022-09-19T22:20:55.437Z,6.67
2022-09-19T22:23:23.009Z,10.33
2022-09-19T22:25:55.324Z,11.53
2022-09-19T22:28:22.152Z,10.60
2022-09-19T22:30:49.143Z,12.43
2022-09-19T22:33:16.411Z,10.50
2022-09-19T22:35:43.736Z,8.30
2022-09-19T22:38:10.626Z,9.73
2022-09-19T22:40:38.291Z,5.97
2022-09-19T22:43:05.383Z,10.60
2022-09-19T22:45:34.022Z,7.47
2022-09-19T22:48:01.097Z,7.23
2022-09-19T22:50:27.901Z,9.23
2022-09-19T22:52:54.724Z,7.97
2022-09-19T22:55:21.452Z,11.90
2022-09-19T22:57:51.592Z,8.13
2022-09-19T23:00:18.468Z,6.97
2022-09-19T23:02:45.580Z,8.17
2022-09-19T23:05:12.391Z,9.83
2022-09-19T23:07:39.782Z,6.20
2022-09-19T23:10:06.796Z,8.57
2022-09-19T23:12:33.797Z,10.87
2022-09-19T23:15:01.081Z,10.57
2022-09-19T23:17:27.831Z,10.47
2022-09-19T23:19:54.572Z,11.97
2022-09-19T23:22:21.307Z,9.83
2022-09-19T23:24:48.065Z,8.63
2022-09-19T23:27:14.876Z,12.87
2022-09-19T23:29:41.851Z,9.83
2022-09-19T23:32:08.751Z,9.73
2022-09-19T23:34:35.700Z,11.67
2022-09-19T23:37:02.568Z,9.20
2022-09-19T23:39:29.352Z,8.40
2022-09-19T23:41:56.226Z,9.93
2022-09-19T23:44:23.007Z,8.60
2022-09-19T23:46:49.836Z,17.00
2022-09-19T23:49:16.635Z,11.23
2022-09-19T23:51:43.411Z,8.20
2022-09-19T23:54:12.535Z,11.20
2022-09-19T23:56:39.350Z,9.17
2022-09-19T23:59:06.135Z,9.23
